sensor_id;sensor_type;location;lat;lon;timestamp;P1;durP1;ratioP1;P2;durP2;ratioP2
16436;SDS011;8328;52.206;21.006;2024-03-17T00:33:32;35.38;;;25.30;;
16436;SDS011;8328;52.206;21.006;2024-03-17T00:35:59;33.53;;;24.13;;
16436;SDS011;8328;52.206;21.006;2024-03-17T00:38:25;33.03;;;23.90;;
16436;SDS011;8328;52.206;21.006;2024-03-17T00:40:51;35.00;;;24.67;;
16436;SDS011;8328;52.206;21.006;2024-03-17T00:43:17;35.65;;;25.08;;
16436;SDS011;8328;52.206;21.006;2024-03-17T00:45:43;34.88;;;24.75;;
16436;SDS011;8328;52.206;21.006;2024-03-17T00:48:09;34.17;;;24.08;;
16436;SDS011;8328;52.206;21.006;2024-03-17T00:50:35;34.88;;;24.85;;
16436;SDS011;8328;52.206;21.006;2024-03-17T00:53:01;33.90;;;24.30;;
16436;SDS011;8328;52.206;21.006;2024-03-17T00:55:28;35.85;;;25.20;;
16436;SDS011;8328;52.206;21.006;2024-03-17T00:57:54;36.20;;;25.30;;
16436;SDS011;8328;52.206;21.006;2024-03-17T01:00:20;37.58;;;26.08;;
16436;SDS011;8328;52.206;21.006;2024-03-17T01:02:46;36.20;;;25.25;;
16436;SDS011;8328;52.206;21.006;2024-03-17T01:05:12;36.58;;;25.85;;
16436;SDS011;8328;52.206;21.006;2024-03-17T01:07:38;34.67;;;24.85;;
16436;SDS011;8328;52.206;21.006;2024-03-17T01:10:05;33.00;;;24.05;;
16436;SDS011;8328;52.206;21.006;2024-03-17T01:12:33;33.22;;;24.75;;
16436;SDS011;8328;52.206;21.006;2024-03-17T01:14:59;32.67;;;24.10;;
16436;SDS011;8328;52.206;21.006;2024-03-17T01:17:26;33.38;;;24.38;;
16436;SDS011;8328;52.206;21.006;2024-03-17T01:19:52;33.30;;;24.42;;
16436;SDS011;8328;52.206;21.006;2024-03-17T01:22:18;34.28;;;24.95;;
16436;SDS011;8328;52.206;21.006;2024-03-17T01:24:44;31.60;;;23.65;;
16436;SDS011;8328;52.206;21.006;2024-03-17T01:27:11;34.72;;;25.10;;
16436;SDS011;8328;52.206;21.006;2024-03-17T01:29:41;34.42;;;25.17;;
16436;SDS011;8328;52.206;21.006;2024-03-17T01:32:07;32.00;;;24.02;;
16436;SDS011;8328;52.206;21.006;2024-03-17T01:34:33;33.08;;;24.58;;
16436;SDS011;8328;52.206;21.006;2024-03-17T01:36:59;34.83;;;25.38;;
16436;SDS011;8328;52.206;21.006;2024-03-17T01:39:25;32.58;;;24.23;;
16436;SDS011;8328;52.206;21.006;2024-03-17T01:41:51;33.28;;;24.85;;
16436;SDS011;8328;52.206;21.006;2024-03-17T01:44:27;34.00;;;24.85;;
16436;SDS011;8328;52.206;21.006;2024-03-17T01:46:56;32.72;;;24.45;;
16436;SDS011;8328;52.206;21.006;2024-03-17T01:49:22;34.95;;;25.63;;
16436;SDS011;8328;52.206;21.006;2024-03-17T01:51:49;33.75;;;25.52;;
16436;SDS011;8328;52.206;21.006;2024-03-17T01:54:16;33.15;;;24.70;;
16436;SDS011;8328;52.206;21.006;2024-03-17T01:56:42;32.85;;;24.60;;
16436;SDS011;8328;52.206;21.006;2024-03-17T01:59:09;32.15;;;24.23;;
16436;SDS011;8328;52.206;21.006;2024-03-17T02:01:35;31.17;;;23.80;;
16436;SDS011;8328;52.206;21.006;2024-03-17T02:04:02;33.20;;;24.83;;
16436;SDS011;8328;52.206;21.006;2024-03-17T02:06:28;33.65;;;25.13;;
16436;SDS011;8328;52.206;21.006;2024-03-17T02:08:55;32.78;;;24.77;;
16436;SDS011;8328;52.206;21.006;2024-03-17T02:13:51;29.95;;;23.80;;
16436;SDS011;8328;52.206;21.006;2024-03-17T02:16:17;29.05;;;23.83;;
16436;SDS011;8328;52.206;21.006;2024-03-17T02:18:44;30.02;;;23.90;;
16436;SDS011;8328;52.206;21.006;2024-03-17T02:21:11;30.90;;;24.05;;
16436;SDS011;8328;52.206;21.006;2024-03-17T02:23:37;32.38;;;24.45;;
16436;SDS011;8328;52.206;21.006;2024-03-17T02:26:03;41.88;;;29.15;;
16436;SDS011;8328;52.206;21.006;2024-03-17T02:28:29;31.05;;;23.75;;
16436;SDS011;8328;52.206;21.006;2024-03-17T02:31:04;33.25;;;24.90;;
16436;SDS011;8328;52.206;21.006;2024-03-17T02:33:30;34.03;;;25.48;;
16436;SDS011;8328;52.206;21.006;2024-03-17T02:35:56;30.23;;;23.85;;
16436;SDS011;8328;52.206;21.006;2024-03-17T02:38:22;32.55;;;25.17;;
16436;SDS011;8328;52.206;21.006;2024-03-17T02:41:07;29.90;;;23.75;;
16436;SDS011;8328;52.206;21.006;2024-03-17T02:43:34;34.17;;;25.50;;
16436;SDS011;8328;52.206;21.006;2024-03-17T02:46:03;30.00;;;23.73;;
16436;SDS011;8328;52.206;21.006;2024-03-17T02:48:30;31.05;;;24.30;;
16436;SDS011;8328;52.206;21.006;2024-03-17T02:50:56;31.90;;;24.33;;
16436;SDS011;8328;52.206;21.006;2024-03-17T02:53:23;34.03;;;25.50;;
16436;SDS011;8328;52.206;21.006;2024-03-17T02:55:49;36.00;;;26.25;;
16436;SDS011;8328;52.206;21.006;2024-03-17T02:58:15;33.67;;;25.35;;
16436;SDS011;8328;52.206;21.006;2024-03-17T03:00:41;30.85;;;24.27;;
16436;SDS011;8328;52.206;21.006;2024-03-17T03:03:08;31.10;;;24.15;;
16436;SDS011;8328;52.206;21.006;2024-03-17T03:05:34;31.52;;;24.48;;
16436;SDS011;8328;52.206;21.006;2024-03-17T03:08:00;30.33;;;24.10;;
16436;SDS011;8328;52.206;21.006;2024-03-17T03:10:26;33.35;;;25.10;;
16436;SDS011;8328;52.206;21.006;2024-03-17T03:12:53;32.13;;;24.83;;
16436;SDS011;8328;52.206;21.006;2024-03-17T03:15:19;34.17;;;25.77;;
16436;SDS011;8328;52.206;21.006;2024-03-17T03:17:46;31.00;;;24.15;;
16436;SDS011;8328;52.206;21.006;2024-03-17T03:20:12;32.13;;;24.80;;
16436;SDS011;8328;52.206;21.006;2024-03-17T03:22:39;31.55;;;24.55;;
16436;SDS011;8328;52.206;21.006;2024-03-17T03:25:05;31.25;;;24.30;;
16436;SDS011;8328;52.206;21.006;2024-03-17T03:27:32;30.73;;;24.25;;
16436;SDS011;8328;52.206;21.006;2024-03-17T03:29:59;29.30;;;23.35;;
16436;SDS011;8328;52.206;21.006;2024-03-17T03:32:25;31.02;;;24.30;;
16436;SDS011;8328;52.206;21.006;2024-03-17T03:34:51;30.40;;;23.58;;
16436;SDS011;8328;52.206;21.006;2024-03-17T03:37:17;33.75;;;24.95;;
16436;SDS011;8328;52.206;21.006;2024-03-17T03:39:43;34.63;;;25.55;;
16436;SDS011;8328;52.206;21.006;2024-03-17T03:42:12;31.00;;;23.75;;
16436;SDS011;8328;52.206;21.006;2024-03-17T03:44:38;32.45;;;24.55;;
16436;SDS011;8328;52.206;21.006;2024-03-17T03:47:04;34.42;;;25.33;;
16436;SDS011;8328;52.206;21.006;2024-03-17T03:49:30;33.15;;;24.52;;
16436;SDS011;8328;52.206;21.006;2024-03-17T03:51:56;30.52;;;23.63;;
16436;SDS011;8328;52.206;21.006;2024-03-17T03:54:22;32.25;;;24.63;;
16436;SDS011;8328;52.206;21.006;2024-03-17T03:56:48;33.67;;;25.15;;
16436;SDS011;8328;52.206;21.006;2024-03-17T03:59:14;33.28;;;24.88;;
16436;SDS011;8328;52.206;21.006;2024-03-17T04:01:40;29.65;;;23.48;;
16436;SDS011;8328;52.206;21.006;2024-03-17T04:04:07;35.13;;;25.73;;
16436;SDS011;8328;52.206;21.006;2024-03-17T04:06:33;33.03;;;24.77;;
16436;SDS011;8328;52.206;21.006;2024-03-17T04:08:59;34.30;;;25.20;;
16436;SDS011;8328;52.206;21.006;2024-03-17T04:11:25;35.28;;;25.85;;
16436;SDS011;8328;52.206;21.006;2024-03-17T04:13:51;32.65;;;24.73;;
16436;SDS011;8328;52.206;21.006;2024-03-17T04:16:17;34.88;;;25.67;;
16436;SDS011;8328;52.206;21.006;2024-03-17T04:18:43;33.13;;;24.75;;
16436;SDS011;8328;52.206;21.006;2024-03-17T04:21:09;32.20;;;24.48;;
16436;SDS011;8328;52.206;21.006;2024-03-17T04:23:36;35.17;;;25.95;;
16436;SDS011;8328;52.206;21.006;2024-03-17T04:26:02;31.13;;;23.83;;
16436;SDS011;8328;52.206;21.006;2024-03-17T04:28:29;31.58;;;24.20;;
16436;SDS011;8328;52.206;21.006;2024-03-17T04:31:05;34.70;;;25.63;;
16436;SDS011;8328;52.206;21.006;2024-03-17T04:33:32;33.05;;;24.80;;
16436;SDS011;8328;52.206;21.006;2024-03-17T04:35:58;32.08;;;24.52;;
16436;SDS011;8328;52.206;21.006;2024-03-17T04:38:24;33.47;;;25.02;;
16436;SDS011;8328;52.206;21.006;2024-03-17T04:40:50;28.45;;;22.95;;
16436;SDS011;8328;52.206;21.006;2024-03-17T04:43:22;32.78;;;24.98;;
16436;SDS011;8328;52.206;21.006;2024-03-17T04:45:48;31.77;;;24.45;;
16436;SDS011;8328;52.206;21.006;2024-03-17T04:48:14;32.03;;;24.60;;
16436;SDS011;8328;52.206;21.006;2024-03-17T04:50:40;33.53;;;25.33;;
16436;SDS011;8328;52.206;21.006;2024-03-17T04:53:06;33.03;;;24.95;;
16436;SDS011;8328;52.206;21.006;2024-03-17T04:55:33;31.42;;;24.45;;
16436;SDS011;8328;52.206;21.006;2024-03-17T04:57:59;30.25;;;23.65;;
16436;SDS011;8328;52.206;21.006;2024-03-17T05:00:25;34.60;;;25.85;;
16436;SDS011;8328;52.206;21.006;2024-03-17T05:02:51;34.05;;;25.48;;
16436;SDS011;8328;52.206;21.006;2024-03-17T05:05:18;32.65;;;25.00;;
16436;SDS011;8328;52.206;21.006;2024-03-17T05:07:45;32.65;;;24.92;;
16436;SDS011;8328;52.206;21.006;2024-03-17T05:10:11;33.78;;;25.45;;
16436;SDS011;8328;52.206;21.006;2024-03-17T05:12:37;29.55;;;24.00;;
16436;SDS011;8328;52.206;21.006;2024-03-17T05:15:03;33.45;;;25.38;;
16436;SDS011;8328;52.206;21.006;2024-03-17T05:17:30;32.60;;;24.92;;
16436;SDS011;8328;52.206;21.006;2024-03-17T05:19:56;28.80;;;23.27;;
16436;SDS011;8328;52.206;21.006;2024-03-17T05:22:22;29.85;;;23.77;;
16436;SDS011;8328;52.206;21.006;2024-03-17T05:24:48;30.95;;;24.40;;
16436;SDS011;8328;52.206;21.006;2024-03-17T05:27:14;28.17;;;20.00;;
16436;SDS011;8328;52.206;21.006;2024-03-17T05:29:40;33.72;;;24.60;;
16436;SDS011;8328;52.206;21.006;2024-03-17T05:32:06;32.80;;;23.88;;
16436;SDS011;8328;52.206;21.006;2024-03-17T05:34:33;43.03;;;28.92;;
16436;SDS011;8328;52.206;21.006;2024-03-17T05:36:59;35.20;;;25.08;;
16436;SDS011;8328;52.206;21.006;2024-03-17T05:39:26;35.80;;;25.30;;
16436;SDS011;8328;52.206;21.006;2024-03-17T05:41:52;34.05;;;24.63;;
16436;SDS011;8328;52.206;21.006;2024-03-17T05:44:18;35.05;;;25.10;;
16436;SDS011;8328;52.206;21.006;2024-03-17T05:46:45;37.35;;;26.23;;
16436;SDS011;8328;52.206;21.006;2024-03-17T05:49:11;43.45;;;28.95;;
16436;SDS011;8328;52.206;21.006;2024-03-17T05:51:37;33.30;;;24.45;;
16436;SDS011;8328;52.206;21.006;2024-03-17T05:54:03;35.22;;;25.20;;
16436;SDS011;8328;52.206;21.006;2024-03-17T05:56:29;38.25;;;26.25;;
16436;SDS011;8328;52.206;21.006;2024-03-17T05:58:55;36.10;;;25.42;;
16436;SDS011;8328;52.206;21.006;2024-03-17T06:01:21;37.80;;;26.02;;
16436;SDS011;8328;52.206;21.006;2024-03-17T06:06:13;37.78;;;25.58;;
16436;SDS011;8328;52.206;21.006;2024-03-17T06:08:39;36.63;;;25.40;;
16436;SDS011;8328;52.206;21.006;2024-03-17T06:11:05;38.28;;;26.20;;
16436;SDS011;8328;52.206;21.006;2024-03-17T06:13:31;35.35;;;24.88;;
16436;SDS011;8328;52.206;21.006;2024-03-17T06:15:57;35.20;;;24.67;;
16436;SDS011;8328;52.206;21.006;2024-03-17T06:18:26;37.72;;;25.95;;
16436;SDS011;8328;52.206;21.006;2024-03-17T06:20:52;39.40;;;26.65;;
16436;SDS011;8328;52.206;21.006;2024-03-17T06:23:18;36.13;;;25.17;;
16436;SDS011;8328;52.206;21.006;2024-03-17T06:25:45;37.50;;;25.80;;
16436;SDS011;8328;52.206;21.006;2024-03-17T06:28:12;37.50;;;25.55;;
16436;SDS011;8328;52.206;21.006;2024-03-17T06:30:45;34.83;;;24.38;;
16436;SDS011;8328;52.206;21.006;2024-03-17T06:33:16;38.65;;;26.27;;
16436;SDS011;8328;52.206;21.006;2024-03-17T06:35:46;34.15;;;24.35;;
16436;SDS011;8328;52.206;21.006;2024-03-17T06:38:12;37.17;;;25.90;;
16436;SDS011;8328;52.206;21.006;2024-03-17T06:40:40;35.35;;;25.30;;
16436;SDS011;8328;52.206;21.006;2024-03-17T06:43:06;39.45;;;26.73;;
16436;SDS011;8328;52.206;21.006;2024-03-17T06:45:33;36.47;;;26.08;;
16436;SDS011;8328;52.206;21.006;2024-03-17T06:47:59;34.90;;;24.80;;
16436;SDS011;8328;52.206;21.006;2024-03-17T06:50:25;36.72;;;25.58;;
16436;SDS011;8328;52.206;21.006;2024-03-17T06:52:51;37.22;;;25.85;;
16436;SDS011;8328;52.206;21.006;2024-03-17T06:55:18;35.97;;;25.15;;
16436;SDS011;8328;52.206;21.006;2024-03-17T06:57:46;35.22;;;24.92;;
16436;SDS011;8328;52.206;21.006;2024-03-17T07:00:12;38.05;;;26.30;;
16436;SDS011;8328;52.206;21.006;2024-03-17T07:02:42;34.45;;;24.90;;
16436;SDS011;8328;52.206;21.006;2024-03-17T07:05:12;37.05;;;26.00;;
16436;SDS011;8328;52.206;21.006;2024-03-17T07:07:41;35.67;;;25.20;;
16436;SDS011;8328;52.206;21.006;2024-03-17T07:10:08;36.55;;;25.35;;
16436;SDS011;8328;52.206;21.006;2024-03-17T07:12:36;17.52;;;12.82;;
16436;SDS011;8328;52.206;21.006;2024-03-17T07:15:02;7.10;;;4.35;;
16436;SDS011;8328;52.206;21.006;2024-03-17T07:19:54;8.13;;;4.17;;
16436;SDS011;8328;52.206;21.006;2024-03-17T07:22:20;7.80;;;3.97;;
16436;SDS011;8328;52.206;21.006;2024-03-17T07:24:47;5.80;;;3.00;;
16436;SDS011;8328;52.206;21.006;2024-03-17T07:27:20;6.10;;;3.13;;
16436;SDS011;8328;52.206;21.006;2024-03-17T07:29:46;4.47;;;2.42;;
16436;SDS011;8328;52.206;21.006;2024-03-17T07:32:12;5.72;;;3.00;;
16436;SDS011;8328;52.206;21.006;2024-03-17T07:34:38;6.15;;;3.10;;
16436;SDS011;8328;52.206;21.006;2024-03-17T07:37:04;5.93;;;2.97;;
16436;SDS011;8328;52.206;21.006;2024-03-17T07:39:30;6.00;;;3.15;;
16436;SDS011;8328;52.206;21.006;2024-03-17T07:42:00;8.15;;;4.18;;
16436;SDS011;8328;52.206;21.006;2024-03-17T07:44:26;7.70;;;3.90;;
16436;SDS011;8328;52.206;21.006;2024-03-17T07:54:12;6.23;;;3.33;;
16436;SDS011;8328;52.206;21.006;2024-03-17T07:56:38;4.15;;;2.08;;
16436;SDS011;8328;52.206;21.006;2024-03-17T07:59:05;3.67;;;2.05;;
16436;SDS011;8328;52.206;21.006;2024-03-17T08:01:37;3.25;;;1.80;;
16436;SDS011;8328;52.206;21.006;2024-03-17T08:04:03;4.82;;;2.63;;
16436;SDS011;8328;52.206;21.006;2024-03-17T08:06:29;5.05;;;2.78;;
16436;SDS011;8328;52.206;21.006;2024-03-17T08:08:59;8.85;;;4.65;;
